Time;durP1;ratioP1;P1;durP2;ratioP2;P2;SDS_P1;SDS_P2;PMS_P1;PMS_P2;Temp;Humidity;BMP_temperature;BMP_pressure;BME280_temperature;BME280_humidity;BME280_pressure;Samples;Min_cycle;Max_cycle;Signal;HPM_P1;HPM_P2
2024/01/05 05:57:31;;;;;;;;;;;1.70;99.90;;;;;;5047040;23;19961;-74
2024/01/05 05:59:58;;;;;;;;;;;1.70;99.90;;;;;;4998258;28;19953;-74
2024/01/05 06:02:26;;;;;;;;;;;1.70;99.90;;;;;;4998128;28;19933;-74
2024/01/05 06:04:53;;;;;;;;;;;1.70;99.90;;;;;;4998367;28;19925;-73
2024/01/05 06:07:19;;;;;;;;;;;1.70;99.90;;;;;;5015847;28;19933;-73
2024/01/05 06:09:47;;;;;;;;;;;1.70;99.90;;;;;;5017635;28;19933;-72
2024/01/05 06:12:13;;;;;;;;;;;1.80;99.90;;;;;;5017564;28;19925;-72
2024/01/05 06:14:41;;;;;;;;;;;1.80;99.90;;;;;;5017604;28;19926;-72
2024/01/05 06:17:08;;;;;;;;;;;1.90;99.90;;;;;;5017503;28;20286;-73
2024/01/05 06:19:34;;;;;;;;;;;1.90;99.90;;;;;;5017277;28;19932;-72
2024/01/05 06:22:01;;;;;;;;;;;1.90;99.90;;;;;;5017520;28;19929;-73
2024/01/05 06:24:28;;;;;;;;;;;1.90;99.90;;;;;;5017060;28;19925;-72
2024/01/05 06:26:55;;;;;;;;;;;2.00;99.90;;;;;;5037405;23;20138;-70
2024/01/05 06:29:22;;;;;;;;;;;2.00;99.90;;;;;;4998812;28;19968;-73
2024/01/05 06:31:50;;;;;;;;;;;1.90;99.90;;;;;;4999676;28;19926;-74
2024/01/05 06:34:16;;;;;;;;;;;2.10;99.90;;;;;;4999236;28;19934;-74
2024/01/05 06:36:43;;;;;;;;;;;2.10;99.90;;;;;;5000331;28;19929;-74
2024/01/05 06:39:09;;;;;;;;;;;2.10;99.90;;;;;;5017277;28;19932;-72
2024/01/05 06:41:36;;;;;;;;;;;2.10;99.90;;;;;;5017260;28;19925;-73
2024/01/05 06:44:04;;;;;;;;;;;2.20;99.90;;;;;;5016770;28;20378;-75
2024/01/05 06:46:31;;;;;;;;;;;2.20;99.90;;;;;;5017218;28;19925;-74
2024/01/05 06:48:58;;;;;;;;;;;2.20;99.90;;;;;;5016877;28;19969;-74
2024/01/05 06:51:29;;;;;;;;;;;2.20;99.90;;;;;;5017638;28;19926;-73
2024/01/05 06:53:56;;;;;;;;;;;2.20;99.90;;;;;;5016853;28;19972;-73
2024/01/05 06:56:23;;;;;;;;;;;2.20;99.90;;;;;;5017339;28;19925;-74
2024/01/05 06:58:50;;;;;;;;;;;2.20;99.90;;;;;;5017030;28;19933;-74
2024/01/05 07:01:17;;;;;;;;;;;2.20;99.90;;;;;;5017412;28;19929;-74
2024/01/05 07:03:44;;;;;;;;;;;2.40;99.90;;;;;;5016993;28;20318;-73
2024/01/05 07:06:12;;;;;;;;;;;2.20;99.90;;;;;;5016300;28;19926;-74
2024/01/05 07:08:39;;;;;;;;;;;2.10;99.90;;;;;;5016318;28;19925;-74
2024/01/05 07:11:06;;;;;;;;;;;2.20;99.90;;;;;;5016906;28;19976;-74
2024/01/05 07:13:32;;;;;;;;;;;2.20;99.90;;;;;;5016726;28;19925;-73
2024/01/05 07:15:59;;;;;;;;;;;2.20;99.90;;;;;;5016742;28;19929;-73
2024/01/05 07:18:25;;;;;;;;;;;2.20;99.90;;;;;;5016264;28;20402;-73
2024/01/05 07:20:52;;;;;;;;;;;2.10;99.90;;;;;;5016698;28;20001;-74
2024/01/05 07:23:20;;;;;;;;;;;2.10;99.90;;;;;;5016578;28;19926;-73
2024/01/05 07:25:46;;;;;;;;;;;2.10;99.90;;;;;;5016758;28;19925;-73
2024/01/05 07:28:13;;;;;;;;;;;2.10;99.90;;;;;;5016168;28;19933;-74
2024/01/05 07:30:39;;;;;;;;;;;2.10;99.90;;;;;;5016423;28;19925;-74
2024/01/05 07:33:06;;;;;;;;;;;2.10;99.90;;;;;;5016477;28;20295;-74
2024/01/05 07:35:33;;;;;;;;;;;2.00;99.90;;;;;;5016141;28;20401;-74
2024/01/05 07:37:59;;;;;;;;;;;2.00;99.90;;;;;;5016140;28;19925;-74
2024/01/05 07:40:27;;;;;;;;;;;2.00;99.90;;;;;;5016429;28;19926;-74
2024/01/05 07:42:55;;;;;;;;;;;2.00;99.90;;;;;;5016139;28;19932;-74
2024/01/05 07:45:22;;;;;;;;;;;2.10;99.90;;;;;;5015929;28;20402;-74
2024/01/05 07:47:48;;;;;;;;;;;2.10;99.90;;;;;;5016085;28;19926;-73
2024/01/05 07:50:15;;;;;;;;;;;2.10;99.90;;;;;;5015932;28;19933;-73
2024/01/05 07:52:42;;;;;;;;;;;2.10;99.90;;;;;;5016087;28;19925;-74
2024/01/05 07:55:09;;;;;;;;;;;2.10;99.90;;;;;;5016170;28;19929;-75
2024/01/05 07:57:37;;;;;;;;;;;2.20;99.90;;;;;;5015707;28;20044;-74
2024/01/05 08:00:04;;;;;;;;;;;2.20;99.90;;;;;;5015734;28;19936;-74
2024/01/05 08:02:31;;;;;;;;;;;2.20;99.90;;;;;;5015701;28;19926;-73
2024/01/05 08:04:57;;;;;;;;;;;2.30;99.90;;;;;;5015602;28;19930;-73
2024/01/05 08:07:24;;;;;;;;;;;2.30;99.90;;;;;;5015563;28;19926;-73
2024/01/05 08:09:52;;;;;;;;;;;2.30;99.90;;;;;;5015431;28;19926;-72
2024/01/05 08:12:20;;;;;;;;;;;2.30;99.90;;;;;;5015498;28;20341;-71
2024/01/05 08:14:48;;;;;;;;;;;2.40;99.90;;;;;;5015343;28;19971;-71
2024/01/05 08:17:15;;;;;;;;;;;2.40;99.90;;;;;;5015652;28;20000;-71
2024/01/05 08:19:41;;;;;;;;;;;2.40;99.90;;;;;;5014932;28;19929;-73
2024/01/05 08:22:08;;;;;;;;;;;2.50;99.90;;;;;;5015189;28;19929;-72
2024/01/05 08:24:34;;;;;;;;;;;2.50;99.90;;;;;;5015181;28;19933;-72
2024/01/05 08:27:01;;;;;;;;;;;2.60;99.90;;;;;;5014882;28;19933;-74
2024/01/05 08:29:27;;;;;;;;;;;2.60;99.90;;;;;;5015126;28;19929;-74
2024/01/05 08:31:55;;;;;;;;;;;2.70;99.90;;;;;;5015355;28;19926;-74
2024/01/05 08:34:22;;;;;;;;;;;2.80;99.90;;;;;;5014887;28;20020;-74
2024/01/05 08:36:48;;;;;;;;;;;2.90;99.90;;;;;;5014904;28;19933;-74
2024/01/05 08:39:15;;;;;;;;;;;2.90;99.90;;;;;;5014507;28;20322;-74
2024/01/05 08:41:43;;;;;;;;;;;3.00;99.90;;;;;;5014511;28;20322;-74
2024/01/05 08:44:09;;;;;;;;;;;3.10;99.90;;;;;;5014924;28;19926;-74
2024/01/05 08:46:36;;;;;;;;;;;3.10;99.90;;;;;;5014787;28;19932;-74
2024/01/05 08:49:04;;;;;;;;;;;3.20;99.90;;;;;;5017058;28;19930;-73
2024/01/05 08:51:30;;;;;;;;;;;3.30;99.90;;;;;;5016984;28;20289;-73
2024/01/05 08:53:58;;;;;;;;;;;3.40;99.90;;;;;;5016640;28;20383;-73
2024/01/05 08:56:25;;;;;;;;;;;3.30;99.90;;;;;;5016948;28;20374;-73
2024/01/05 08:58:51;;;;;;;;;;;3.40;99.90;;;;;;5016353;28;20394;-72
2024/01/05 09:01:18;;;;;;;;;;;3.40;99.90;;;;;;5017466;28;19936;-74
2024/01/05 09:03:46;;;;;;;;;;;3.60;99.90;;;;;;5017704;28;20020;-73
2024/01/05 09:06:14;;;;;;;;;;;3.60;99.90;;;;;;5018132;28;19929;-74
2024/01/05 09:08:41;;;;;;;;;;;3.60;99.90;;;;;;5017371;28;19996;-74
2024/01/05 09:11:07;;;;;;;;;;;3.70;99.90;;;;;;5017419;28;19951;-74
2024/01/05 09:13:34;;;;;;;;;;;3.80;99.90;;;;;;5015946;28;19933;-73
2024/01/05 09:16:00;;;;;;;;;;;3.80;99.90;;;;;;5016107;28;19932;-73
2024/01/05 09:18:27;;;;;;;;;;;3.90;99.90;;;;;;5017116;28;19925;-73
2024/01/05 09:20:54;;;;;;;;;;;4.00;99.90;;;;;;5015780;28;19932;-71
2024/01/05 09:23:22;;;;;;;;;;;4.00;99.90;;;;;;5014114;28;19925;-72
2024/01/05 09:25:48;;;;;;;;;;;4.10;99.90;;;;;;5014162;28;19929;-72
2024/01/05 09:28:15;;;;;;;;;;;4.10;99.90;;;;;;5014022;28;19925;-73
2024/01/05 09:30:42;;;;;;;;;;;4.10;99.90;;;;;;5013499;28;19933;-74
2024/01/05 09:33:09;;;;;;;;;;;4.10;99.90;;;;;;5014323;28;19926;-73
2024/01/05 09:35:35;;;;;;;;;;;4.10;99.90;;;;;;5014012;28;19929;-73
2024/01/05 09:38:02;;;;;;;;;;;3.90;99.90;;;;;;5013689;28;19926;-72
2024/01/05 09:40:30;;;;;;;;;;;4.00;99.90;;;;;;5014108;28;19925;-72
2024/01/05 09:42:57;;;;;;;;;;;3.90;99.90;;;;;;5013978;28;19933;-71
2024/01/05 09:45:25;;;;;;;;;;;4.00;99.90;;;;;;5013939;28;19932;-71
2024/01/05 09:47:53;;;;;;;;;;;4.00;99.90;;;;;;5013870;28;19926;-72
2024/01/05 16:19:19;;;;;;;;;;;4.20;99.90;;;;;;5225659;23;19926;-74
2024/01/05 16:21:46;;;;;;;;;;;4.30;99.90;;;;;;4995974;28;19925;-73
2024/01/05 16:24:12;;;;;;;;;;;4.20;99.90;;;;;;4995607;28;19929;-73
2024/01/05 16:26:39;;;;;;;;;;;4.20;99.90;;;;;;4995415;28;20387;-72
2024/01/05 16:29:05;;;;;;;;;;;4.20;99.90;;;;;;5009358;28;20382;-73
2024/01/05 16:31:32;;;;;;;;;;;4.10;99.90;;;;;;5015288;28;19926;-73
2024/01/05 16:33:58;;;;;;;;;;;4.10;99.90;;;;;;5028698;23;19933;-72
2024/01/05 16:36:26;;;;;;;;;;;4.00;99.90;;;;;;4995565;28;19933;-71
2024/01/05 16:38:53;;;;;;;;;;;4.10;99.90;;;;;;4995387;28;19933;-71
2024/01/05 16:41:23;;;;;;;;;;;4.00;99.90;;;;;;4995792;28;19929;-71
2024/01/05 16:43:50;;;;;;;;;;;4.00;99.90;;;;;;5003899;28;20333;-71
2024/01/05 16:46:17;;;;;;;;;;;4.00;99.90;;;;;;5014726;28;19926;-71
2024/01/05 16:48:47;;;;;;;;;;;4.00;99.90;;;;;;5014711;28;19967;-71
2024/01/05 16:51:14;;;;;;;;;;;4.00;99.90;;;;;;5014866;28;19930;-71
2024/01/05 16:53:42;;;;;;;;;;;3.90;99.90;;;;;;5014852;28;20032;-71
2024/01/05 16:56:08;;;;;;;;;;;3.90;99.90;;;;;;5014449;28;19926;-71
2024/01/05 16:58:35;;;;;;;;;;;3.90;99.90;;;;;;5014677;28;19925;-71
2024/01/05 17:01:01;;;;;;;;;;;3.90;99.90;;;;;;5014425;28;19925;-71
2024/01/05 17:03:28;;;;;;;;;;;3.90;99.90;;;;;;5014419;28;19997;-71
2024/01/05 17:05:55;;;;;;;;;;;3.80;99.90;;;;;;5014546;28;19933;-71
2024/01/05 17:08:21;;;;;;;;;;;3.80;99.90;;;;;;5014572;28;19948;-71
2024/01/05 17:10:49;;;;;;;;;;;3.70;99.90;;;;;;5014115;28;19926;-71
2024/01/05 17:13:16;;;;;;;;;;;3.70;99.90;;;;;;5014302;28;19925;-71
2024/01/05 17:15:43;;;;;;;;;;;3.70;99.90;;;;;;5014215;28;19925;-71
2024/01/05 17:18:10;;;;;;;;;;;3.70;99.90;;;;;;5014399;28;19977;-71
2024/01/05 17:20:36;;;;;;;;;;;3.60;99.90;;;;;;5014232;28;19925;-71
2024/01/05 17:23:03;;;;;;;;;;;3.70;99.90;;;;;;5014209;28;20287;-72
2024/01/05 17:25:30;;;;;;;;;;;3.70;99.90;;;;;;5014155;28;19929;-71
2024/01/05 17:27:57;;;;;;;;;;;3.70;99.90;;;;;;5014243;28;19925;-71
2024/01/05 17:30:24;;;;;;;;;;;3.70;99.90;;;;;;5014402;28;19926;-71
2024/01/05 17:32:51;;;;;;;;;;;3.70;99.90;;;;;;5013966;28;19976;-71
2024/01/05 17:35:19;;;;;;;;;;;3.70;99.90;;;;;;5014318;28;20330;-71
2024/01/05 17:37:45;;;;;;;;;;;3.70;99.90;;;;;;5014396;28;19925;-71
2024/01/05 17:40:12;;;;;;;;;;;3.80;99.90;;;;;;5014305;28;19948;-72
2024/01/05 17:42:39;;;;;;;;;;;3.80;99.90;;;;;;5014196;28;19933;-71
2024/01/05 17:45:07;;;;;;;;;;;3.80;99.90;;;;;;5014204;28;19933;-71
2024/01/05 17:47:34;;;;;;;;;;;3.80;99.90;;;;;;5014266;28;19925;-72
2024/01/05 17:50:01;;;;;;;;;;;3.90;99.90;;;;;;5014217;28;19929;-71
2024/01/05 17:52:27;;;;;;;;;;;4.00;99.90;;;;;;5017197;28;19926;-71
2024/01/05 17:54:54;;;;;;;;;;;3.90;99.90;;;;;;5017917;28;19929;-72
2024/01/05 17:57:20;;;;;;;;;;;3.90;99.90;;;;;;5018109;28;19930;-71
2024/01/05 17:59:47;;;;;;;;;;;3.90;99.90;;;;;;5018657;28;19926;-71
2024/01/05 18:02:15;;;;;;;;;;;3.90;99.90;;;;;;5017999;28;20445;-71
2024/01/05 18:04:43;;;;;;;;;;;3.90;99.90;;;;;;5017777;28;20375;-71
2024/01/05 18:07:09;;;;;;;;;;;3.90;99.90;;;;;;5018103;28;19926;-70
2024/01/05 18:09:36;;;;;;;;;;;4.00;99.90;;;;;;5018083;28;19930;-70
2024/01/05 18:12:02;;;;;;;;;;;4.00;99.90;;;;;;5017969;28;19926;-71
2024/01/05 18:14:29;;;;;;;;;;;4.00;99.90;;;;;;5017856;28;19925;-71
2024/01/05 18:16:56;;;;;;;;;;;4.00;99.90;;;;;;5018425;28;19925;-71
2024/01/05 18:19:23;;;;;;;;;;;4.00;99.90;;;;;;5017845;28;19925;-71
2024/01/05 18:21:51;;;;;;;;;;;4.00;99.90;;;;;;5018308;28;19926;-71
2024/01/05 18:24:18;;;;;;;;;;;4.00;99.90;;;;;;5017677;28;19925;-71
2024/01/05 18:26:45;;;;;;;;;;;4.10;99.90;;;;;;5017662;28;19926;-70
2024/01/05 18:29:12;;;;;;;;;;;4.00;99.90;;;;;;5018467;28;19929;-70
2024/01/05 18:31:39;;;;;;;;;;;4.10;99.90;;;;;;5017522;28;20297;-70
2024/01/05 18:34:07;;;;;;;;;;;4.10;99.90;;;;;;5017019;28;19984;-71
2024/01/05 18:36:35;;;;;;;;;;;4.10;99.90;;;;;;5017756;28;20020;-71
2024/01/05 18:39:03;;;;;;;;;;;4.10;99.90;;;;;;5018258;28;19929;-70
2024/01/05 18:41:30;;;;;;;;;;;4.10;99.90;;;;;;5017920;28;20289;-70
2024/01/05 18:43:57;;;;;;;;;;;4.20;99.90;;;;;;5017544;28;19929;-71
2024/01/05 18:46:24;;;;;;;;;;;4.10;99.90;;;;;;5017575;28;19949;-71
2024/01/05 18:48:50;;;;;;;;;;;4.20;99.90;;;;;;5017612;28;19947;-71
2024/01/05 18:51:17;;;;;;;;;;;4.10;99.90;;;;;;5017520;28;20322;-71
2024/01/05 18:53:45;;;;;;;;;;;4.20;99.90;;;;;;5017624;28;19933;-70
2024/01/05 18:56:12;;;;;;;;;;;4.20;99.90;;;;;;5017198;28;20398;-71
2024/01/05 18:58:39;;;;;;;;;;;4.30;99.90;;;;;;5017288;28;19925;-71
2024/01/05 19:01:06;;;;;;;;;;;4.20;99.90;;;;;;5017583;28;19933;-70
2024/01/05 19:03:32;;;;;;;;;;;4.20;99.90;;;;;;5016966;28;19937;-70
2024/01/05 19:05:59;;;;;;;;;;;4.20;99.90;;;;;;5017371;28;19973;-71
2024/01/05 19:08:26;;;;;;;;;;;4.20;99.90;;;;;;5017294;28;19925;-70
2024/01/05 19:10:54;;;;;;;;;;;4.30;99.90;;;;;;5017284;28;19937;-70
2024/01/05 19:13:20;;;;;;;;;;;4.20;99.90;;;;;;5017431;28;19929;-72
2024/01/05 19:15:47;;;;;;;;;;;4.20;99.90;;;;;;5016970;28;19933;-70
2024/01/05 19:18:13;;;;;;;;;;;4.20;99.90;;;;;;5017234;28;19925;-71
2024/01/05 19:20:40;;;;;;;;;;;4.20;99.90;;;;;;5017480;28;19926;-70
2024/01/05 19:23:07;;;;;;;;;;;4.30;99.90;;;;;;5016980;28;19925;-71
2024/01/05 19:25:33;;;;;;;;;;;4.30;99.90;;;;;;5016759;28;19925;-70
2024/01/05 19:28:01;;;;;;;;;;;4.20;99.90;;;;;;5016876;28;20004;-71
2024/01/05 19:30:28;;;;;;;;;;;4.30;99.90;;;;;;5017066;28;19930;-71
2024/01/05 19:32:54;;;;;;;;;;;4.30;99.90;;;;;;5016767;28;19925;-71
2024/01/05 19:35:21;;;;;;;;;;;4.30;99.90;;;;;;5016789;28;19925;-72
2024/01/05 19:37:47;;;;;;;;;;;4.20;99.90;;;;;;5017241;28;19932;-71
2024/01/05 19:40:14;;;;;;;;;;;4.20;99.90;;;;;;5016814;28;20345;-71
2024/01/05 19:42:41;;;;;;;;;;;4.20;99.90;;;;;;5016602;28;19925;-70
2024/01/05 19:45:11;;;;;;;;;;;4.30;99.90;;;;;;5016487;28;20341;-71
2024/01/05 19:47:38;;;;;;;;;;;4.20;99.90;;;;;;5016670;28;19926;-70
2024/01/05 19:50:04;;;;;;;;;;;4.30;99.90;;;;;;5016751;28;19949;-70
2024/01/05 19:52:31;;;;;;;;;;;4.30;99.90;;;;;;5016473;28;19948;-70
2024/01/05 19:54:59;;;;;;;;;;;4.20;99.90;;;;;;5016813;28;19925;-71
2024/01/05 19:57:26;;;;;;;;;;;4.30;99.90;;;;;;5016409;28;19925;-71
2024/01/05 19:59:52;;;;;;;;;;;4.30;99.90;;;;;;5017352;28;19936;-70
2024/01/05 20:02:20;;;;;;;;;;;4.30;99.90;;;;;;5016342;28;19980;-70
2024/01/05 20:04:49;;;;;;;;;;;4.30;99.90;;;;;;5016111;28;19925;-71
2024/01/05 20:07:16;;;;;;;;;;;4.30;99.90;;;;;;5016984;28;19925;-69
2024/01/05 20:09:43;;;;;;;;;;;4.30;99.90;;;;;;5016407;28;19937;-70
2024/01/05 20:12:16;;;;;;;;;;;4.30;99.90;;;;;;5015909;28;19979;-69
2024/01/05 20:14:42;;;;;;;;;;;4.30;99.90;;;;;;5015491;28;19935;-70
2024/01/05 20:17:09;;;;;;;;;;;4.30;99.90;;;;;;5015644;28;20378;-69
2024/01/05 20:19:37;;;;;;;;;;;4.20;99.90;;;;;;5015741;28;20386;-69
2024/01/05 20:22:05;;;;;;;;;;;4.20;99.90;;;;;;5015920;28;20025;-70
2024/01/05 20:24:32;;;;;;;;;;;4.20;99.90;;;;;;5016790;28;19926;-70
2024/01/05 20:27:02;;;;;;;;;;;4.30;99.90;;;;;;5016230;28;19926;-71
2024/01/05 20:29:29;;;;;;;;;;;4.20;99.90;;;;;;5016223;28;19984;-69
2024/01/05 20:31:56;;;;;;;;;;;4.30;99.90;;;;;;5015240;28;20337;-73
2024/01/05 20:34:22;;;;;;;;;;;4.20;99.90;;;;;;5015335;28;19999;-68
2024/01/05 20:36:52;;;;;;;;;;;4.20;99.90;;;;;;5015262;28;19925;-70
2024/01/05 20:39:20;;;;;;;;;;;4.20;99.90;;;;;;5016059;28;19925;-71
2024/01/05 20:41:47;;;;;;;;;;;4.20;99.90;;;;;;5016032;28;19972;-72
2024/01/05 20:44:13;;;;;;;;;;;4.30;99.90;;;;;;5015783;28;19925;-71
2024/01/05 20:46:40;;;;;;;;;;;4.20;99.90;;;;;;5015815;28;19926;-70
2024/01/05 20:49:07;;;;;;;;;;;4.20;99.90;;;;;;5015632;28;19972;-71
2024/01/05 20:51:33;;;;;;;;;;;4.20;99.90;;;;;;5015711;28;19925;-70
2024/01/05 20:54:06;;;;;;;;;;;4.20;99.90;;;;;;5016350;28;19929;-71
2024/01/05 20:56:32;;;;;;;;;;;4.20;99.90;;;;;;5015795;28;19932;-70
2024/01/05 20:58:59;;;;;;;;;;;4.20;99.90;;;;;;5015886;28;20302;-70
2024/01/05 21:01:25;;;;;;;;;;;4.20;99.90;;;;;;5015700;28;19926;-71
2024/01/05 21:03:53;;;;;;;;;;;4.20;99.90;;;;;;5016203;28;19976;-70
2024/01/05 21:06:20;;;;;;;;;;;4.20;99.90;;;;;;5015978;28;19933;-71
2024/01/05 21:08:46;;;;;;;;;;;4.20;99.90;;;;;;5015532;28;20299;-70
2024/01/05 21:11:21;;;;;;;;;;;4.20;99.90;;;;;;5015343;28;19930;-71
2024/01/05 21:13:48;;;;;;;;;;;4.20;99.90;;;;;;5015141;28;20016;-72
2024/01/05 21:16:14;;;;;;;;;;;4.20;99.90;;;;;;5015882;28;19925;-73
2024/01/05 21:18:41;;;;;;;;;;;4.20;99.90;;;;;;5016118;28;20426;-74
2024/01/05 21:21:07;;;;;;;;;;;4.20;99.90;;;;;;5017282;28;19965;-74
2024/01/05 21:23:34;;;;;;;;;;;4.20;99.90;;;;;;5016670;28;20016;-72
2024/01/05 21:26:03;;;;;;;;;;;4.20;99.90;;;;;;5014795;28;19926;-73
2024/01/05 21:28:30;;;;;;;;;;;4.20;99.90;;;;;;5014389;28;19925;-75
2024/01/05 21:30:57;;;;;;;;;;;4.20;99.90;;;;;;5014469;28;19965;-74
2024/01/05 21:33:24;;;;;;;;;;;4.20;99.90;;;;;;5015899;28;19932;-73
2024/01/05 21:35:50;;;;;;;;;;;4.20;99.90;;;;;;5016477;28;19926;-74
2024/01/05 21:38:17;;;;;;;;;;;4.20;99.90;;;;;;5015962;28;19965;-73
2024/01/05 21:40:44;;;;;;;;;;;4.10;99.90;;;;;;5015285;28;19936;-74
2024/01/05 21:43:11;;;;;;;;;;;4.10;99.90;;;;;;5014140;28;19925;-75
2024/01/05 21:45:40;;;;;;;;;;;4.10;99.90;;;;;;5014341;28;19988;-74
2024/01/05 21:48:07;;;;;;;;;;;4.10;99.90;;;;;;5014546;28;19926;-73
2024/01/05 21:50:34;;;;;;;;;;;4.10;99.90;;;;;;5014116;28;19925;-73
2024/01/05 21:53:01;;;;;;;;;;;4.10;99.90;;;;;;5014163;28;19972;-72
2024/01/05 21:55:28;;;;;;;;;;;4.10;99.90;;;;;;5014194;28;19926;-72
2024/01/05 21:57:55;;;;;;;;;;;4.10;99.90;;;;;;5014060;28;19926;-72
2024/01/05 22:00:21;;;;;;;;;;;4.10;99.90;;;;;;5014227;28;19925;-73
2024/01/05 22:02:49;;;;;;;;;;;4.10;99.90;;;;;;5014076;28;19932;-73
2024/01/05 22:05:16;;;;;;;;;;;4.00;99.90;;;;;;5014062;28;19932;-73
2024/01/05 22:07:43;;;;;;;;;;;4.10;99.90;;;;;;5014010;28;19949;-73
2024/01/05 22:10:11;;;;;;;;;;;4.10;99.90;;;;;;5014355;28;19925;-73
2024/01/05 22:12:38;;;;;;;;;;;4.10;99.90;;;;;;5014098;28;19932;-73
2024/01/05 22:15:05;;;;;;;;;;;4.00;99.90;;;;;;5013828;28;19926;-74
2024/01/05 22:17:32;;;;;;;;;;;4.10;99.90;;;;;;5013960;28;19925;-73
2024/01/05 22:20:00;;;;;;;;;;;4.00;99.90;;;;;;5013889;28;19932;-74
2024/01/05 22:22:27;;;;;;;;;;;4.00;99.90;;;;;;5013898;28;19941;-73
2024/01/05 22:24:53;;;;;;;;;;;4.00;99.90;;;;;;5013740;28;19972;-75
2024/01/05 22:27:20;;;;;;;;;;;4.00;99.90;;;;;;5013856;28;19925;-74
2024/01/05 22:29:47;;;;;;;;;;;4.00;99.90;;;;;;5013840;28;19929;-74
2024/01/05 22:32:13;;;;;;;;;;;4.00;99.90;;;;;;5013774;28;19930;-71
2024/01/05 22:34:40;;;;;;;;;;;4.00;99.90;;;;;;5013320;28;20010;-72
2024/01/05 22:37:08;;;;;;;;;;;4.00;99.90;;;;;;5014610;28;19925;-72
2024/01/05 22:39:35;;;;;;;;;;;4.00;99.90;;;;;;5017624;28;19925;-72
2024/01/05 22:42:02;;;;;;;;;;;4.00;99.90;;;;;;5017493;28;19926;-75
2024/01/05 22:44:28;;;;;;;;;;;4.00;99.90;;;;;;5017332;28;19925;-74
2024/01/05 22:46:55;;;;;;;;;;;4.00;99.90;;;;;;5017328;28;19926;-73
2024/01/05 22:49:21;;;;;;;;;;;4.00;99.90;;;;;;5017451;28;19925;-73
2024/01/05 22:51:48;;;;;;;;;;;4.00;99.90;;;;;;5017234;28;19925;-73
2024/01/05 22:54:16;;;;;;;;;;;4.00;99.90;;;;;;5017045;28;19932;-73
2024/01/05 22:56:46;;;;;;;;;;;4.00;99.90;;;;;;5016975;28;19930;-73
2024/01/05 22:59:12;;;;;;;;;;;4.10;99.90;;;;;;5017116;28;19925;-73
2024/01/05 23:01:39;;;;;;;;;;;4.10;99.90;;;;;;5017284;28;19932;-74
2024/01/05 23:04:06;;;;;;;;;;;4.10;99.90;;;;;;5016798;28;19948;-75
2024/01/05 23:06:32;;;;;;;;;;;4.10;99.90;;;;;;5017100;28;19925;-73
2024/01/05 23:08:59;;;;;;;;;;;4.10;99.90;;;;;;5016909;28;19925;-73
2024/01/05 23:11:27;;;;;;;;;;;4.10;99.90;;;;;;5016870;28;20271;-74
2024/01/05 23:13:53;;;;;;;;;;;4.10;99.90;;;;;;5016770;28;19976;-73
2024/01/05 23:16:20;;;;;;;;;;;4.10;99.90;;;;;;5016487;28;20291;-73
2024/01/05 23:18:47;;;;;;;;;;;4.10;99.90;;;;;;5016707;28;19980;-73
2024/01/05 23:21:13;;;;;;;;;;;4.10;99.90;;;;;;5027130;23;20387;-72
2024/01/05 23:23:40;;;;;;;;;;;4.10;99.90;;;;;;4996830;28;20413;-72
2024/01/05 23:26:13;;;;;;;;;;;4.20;99.90;;;;;;4996969;28;19926;-73
2024/01/05 23:28:41;;;;;;;;;;;4.20;99.90;;;;;;4996641;28;20354;-73
